createdAt,value
2023-02-23T00:03:15.651Z,9.11
2023-02-23T00:07:20.982Z,8.95
2023-02-23T00:11:24.691Z,8.92
2023-02-23T00:15:29.968Z,8.84
2023-02-23T00:19:37.864Z,8.85
2023-02-23T00:23:41.205Z,8.93
2023-02-23T00:27:44.546Z,8.90
2023-02-23T00:31:50.762Z,8.81
2023-02-23T00:35:55.612Z,8.74
2023-02-23T00:39:58.680Z,8.75
2023-02-23T00:44:04.535Z,8.72
2023-02-23T00:48:10.905Z,8.74
2023-02-23T00:52:15.573Z,8.77
2023-02-23T00:56:18.721Z,8.82
2023-02-23T01:00:21.908Z,8.76
2023-02-23T01:04:26.354Z,8.81
2023-02-23T01:08:31.196Z,8.76
2023-02-23T01:12:34.926Z,8.88
2023-02-23T01:16:39.623Z,8.90
2023-02-23T01:20:46.020Z,8.81
2023-02-23T01:24:49.053Z,8.80
2023-02-23T01:28:53.194Z,8.82
2023-02-23T01:32:56.369Z,8.80
2023-02-23T01:37:00.761Z,8.76
2023-02-23T01:41:04.954Z,8.73
2023-02-23T01:45:25.100Z,8.71
2023-02-23T01:49:31.847Z,8.70
2023-02-23T01:53:41.994Z,8.66
2023-02-23T01:57:45.068Z,8.63
2023-02-23T02:01:48.366Z,8.63
2023-02-23T02:05:52.838Z,8.62
2023-02-23T02:10:34.177Z,8.62
2023-02-23T02:14:38.656Z,8.60
2023-02-23T02:19:01.163Z,8.57
2023-02-23T02:23:37.122Z,8.54
2023-02-23T02:28:18.104Z,8.50
2023-02-23T02:33:04.931Z,8.49
2023-02-23T02:37:29.006Z,8.47
2023-02-23T02:41:42.393Z,8.38
2023-02-23T02:45:52.200Z,8.28
2023-02-23T02:50:06.812Z,8.39
2023-02-23T02:54:21.106Z,8.41
2023-02-23T02:58:25.677Z,8.45
2023-02-23T03:02:47.047Z,8.44
2023-02-23T03:07:15.653Z,8.43
2023-02-23T03:11:38.105Z,8.46
2023-02-23T03:16:09.734Z,8.46
2023-02-23T03:20:39.485Z,8.43
2023-02-23T03:25:06.525Z,8.42
2023-02-23T03:29:35.218Z,8.39
2023-02-23T03:34:05.220Z,8.43
2023-02-23T03:38:30.722Z,8.47
2023-02-23T03:42:55.980Z,8.45
2023-02-23T03:47:21.489Z,8.45
2023-02-23T03:51:45.176Z,8.41
2023-02-23T03:56:13.016Z,8.46
2023-02-23T04:00:39.282Z,8.46
2023-02-23T04:05:03.879Z,8.44
2023-02-23T04:09:26.401Z,8.48
2023-02-23T04:13:30.827Z,8.49
2023-02-23T04:17:34.723Z,8.47
2023-02-23T04:21:39.628Z,8.49
2023-02-23T04:25:42.723Z,8.48
2023-02-23T04:29:46.138Z,8.47
2023-02-23T04:33:49.494Z,8.42
2023-02-23T04:37:53.873Z,8.44
2023-02-23T04:41:56.874Z,8.42
2023-02-23T04:45:59.961Z,8.44
2023-02-23T04:50:03.900Z,8.44
2023-02-23T04:54:08.332Z,8.44
2023-02-23T04:58:13.782Z,8.42
2023-02-23T05:02:16.845Z,8.40
2023-02-23T05:06:21.064Z,8.37
2023-02-23T05:10:25.792Z,8.35
2023-02-23T05:14:29.019Z,8.32
2023-02-23T05:18:32.097Z,8.30
2023-02-23T05:22:35.222Z,8.33
2023-02-23T05:26:40.029Z,8.33
2023-02-23T05:30:43.720Z,8.36
2023-02-23T05:34:46.827Z,8.37
2023-02-23T05:38:50.198Z,8.33
2023-02-23T05:42:59.959Z,8.38
2023-02-23T05:47:03.316Z,8.35
2023-02-23T05:51:08.435Z,8.36
2023-02-23T05:55:13.867Z,8.35
2023-02-23T05:59:18.436Z,8.36
2023-02-23T06:03:22.703Z,8.26
2023-02-23T06:07:26.075Z,8.27
2023-02-23T06:11:29.099Z,8.26
2023-02-23T06:15:33.495Z,8.21
2023-02-23T06:19:36.511Z,8.24
2023-02-23T06:23:39.550Z,8.21
2023-02-23T06:27:44.057Z,8.26
2023-02-23T06:31:48.545Z,8.11
2023-02-23T06:35:51.674Z,8.15
2023-02-23T06:39:54.914Z,8.19
2023-02-23T06:43:58.009Z,8.16
2023-02-23T06:48:02.433Z,8.22
2023-02-23T06:52:05.844Z,8.24
2023-02-23T06:56:11.024Z,8.21
2023-02-23T07:00:17.877Z,8.21
2023-02-23T07:04:22.448Z,8.19
2023-02-23T07:08:25.569Z,8.21
2023-02-23T07:12:28.778Z,8.05
2023-02-23T07:16:32.303Z,7.94
2023-02-23T07:20:36.811Z,7.95
2023-02-23T07:24:39.982Z,7.75
2023-02-23T07:28:43.705Z,7.76
2023-02-23T07:32:46.970Z,7.77
2023-02-23T07:36:51.656Z,7.76
2023-02-23T07:40:55.099Z,7.79
2023-02-23T07:44:58.247Z,7.80
2023-02-23T07:49:01.378Z,7.78
2023-02-23T07:53:06.472Z,7.90
2023-02-23T07:57:10.263Z,7.97
2023-02-23T08:01:15.474Z,7.96
2023-02-23T08:05:18.721Z,7.95
2023-02-23T08:09:23.345Z,8.02
2023-02-23T08:13:27.919Z,7.92
2023-02-23T08:17:30.985Z,7.97
2023-02-23T08:21:34.578Z,8.03
2023-02-23T08:25:39.124Z,7.88
2023-02-23T08:29:44.169Z,7.95
2023-02-23T08:33:47.945Z,8.16
2023-02-23T08:37:51.099Z,8.24
2023-02-23T08:41:55.756Z,8.06
2023-02-23T08:45:59.611Z,8.14
2023-02-23T08:50:03.185Z,8.12
2023-02-23T08:54:12.756Z,8.17
2023-02-23T08:58:17.272Z,8.24
2023-02-23T09:02:21.224Z,8.26
2023-02-23T09:06:26.496Z,8.37
2023-02-23T09:10:30.055Z,8.52
2023-02-23T09:14:36.757Z,8.48
2023-02-23T09:18:40.555Z,8.40
2023-02-23T09:22:45.629Z,8.56
2023-02-23T09:26:53.763Z,8.66
2023-02-23T09:30:58.820Z,8.47
2023-02-23T09:35:02.039Z,8.49
2023-02-23T09:39:05.342Z,8.39
2023-02-23T09:43:15.446Z,8.42
2023-02-23T09:47:32.732Z,8.34
2023-02-23T09:51:41.689Z,8.48
2023-02-23T09:55:45.868Z,8.27
2023-02-23T09:59:49.018Z,8.40
2023-02-23T10:03:59.316Z,8.28
2023-02-23T10:08:08.389Z,8.11
2023-02-23T10:12:15.413Z,8.08
2023-02-23T10:16:23.530Z,8.10
2023-02-23T10:20:37.309Z,7.99
2023-02-23T10:24:44.344Z,8.18
2023-02-23T10:28:47.948Z,8.27
2023-02-23T10:32:58.669Z,8.15
2023-02-23T10:37:06.161Z,8.22
2023-02-23T10:41:12.144Z,8.39
2023-02-23T10:45:23.145Z,8.48
2023-02-23T10:49:31.749Z,8.62
2023-02-23T10:53:39.174Z,8.70
2023-02-23T10:57:42.862Z,8.76
2023-02-23T11:02:00.911Z,8.82
2023-02-23T11:06:05.446Z,8.85
2023-02-23T11:10:32.325Z,8.60
2023-02-23T11:14:35.688Z,8.57
2023-02-23T11:18:40.887Z,8.44
2023-02-23T11:22:44.518Z,8.48
2023-02-23T11:26:51.996Z,8.67
2023-02-23T11:30:55.138Z,9.04
2023-02-23T11:35:28.448Z,8.93
2023-02-23T11:39:31.986Z,8.90
2023-02-23T11:43:36.937Z,8.90
2023-02-23T11:47:42.925Z,9.13
2023-02-23T11:51:52.425Z,9.78
2023-02-23T11:55:59.357Z,10.39
2023-02-23T12:00:12.582Z,10.19
2023-02-23T12:04:30.605Z,9.41
2023-02-23T12:08:41.301Z,9.54
2023-02-23T12:12:54.859Z,9.32
2023-02-23T12:17:05.328Z,9.41
2023-02-23T12:21:19.187Z,9.23
2023-02-23T12:25:28.342Z,9.47
2023-02-23T12:29:38.356Z,9.67
2023-02-23T12:33:45.424Z,9.69
2023-02-23T12:37:52.644Z,10.03
2023-02-23T12:42:03.344Z,10.46
2023-02-23T12:46:13.243Z,10.78
2023-02-23T12:50:26.087Z,10.56
2023-02-23T12:54:30.519Z,10.76
2023-02-23T12:58:45.474Z,10.96
2023-02-23T13:02:53.947Z,10.61
2023-02-23T13:07:07.568Z,10.06
2023-02-23T13:11:24.287Z,9.65
2023-02-23T13:15:39.689Z,9.56
2023-02-23T13:19:51.407Z,9.58
2023-02-23T13:24:03.456Z,9.60
2023-02-23T13:28:14.129Z,9.44
2023-02-23T13:32:19.923Z,9.74
2023-02-23T13:36:24.600Z,9.86
2023-02-23T13:40:37.441Z,9.57
2023-02-23T13:44:48.138Z,9.60
2023-02-23T13:49:01.741Z,9.52
2023-02-23T13:53:08.469Z,9.42
2023-02-23T13:57:17.452Z,9.50
2023-02-23T14:01:23.822Z,9.44
2023-02-23T14:05:30.090Z,9.41
2023-02-23T14:09:39.026Z,9.50
2023-02-23T14:13:59.732Z,9.47
2023-02-23T14:18:05.485Z,9.53
2023-02-23T14:22:14.376Z,9.81
2023-02-23T14:26:56.074Z,9.72
2023-02-23T14:31:17.687Z,9.77
2023-02-23T14:35:42.765Z,9.45
2023-02-23T14:39:47.173Z,9.54
2023-02-23T14:43:55.009Z,9.47
2023-02-23T14:48:04.281Z,9.36
2023-02-23T14:52:09.973Z,9.25
2023-02-23T14:56:32.601Z,9.25
2023-02-23T15:00:43.961Z,9.13
2023-02-23T15:04:48.511Z,9.04
2023-02-23T15:08:51.790Z,9.07
2023-02-23T15:12:55.449Z,9.04
2023-02-23T15:16:58.617Z,9.07
2023-02-23T15:21:07.664Z,9.03
2023-02-23T15:25:18.001Z,9.06
2023-02-23T15:29:23.195Z,8.98
2023-02-23T15:33:30.362Z,8.93
2023-02-23T15:37:41.108Z,8.92
2023-02-23T15:41:49.590Z,8.93
2023-02-23T15:45:55.858Z,8.93
2023-02-23T15:50:10.202Z,9.04
2023-02-23T15:54:22.052Z,9.03
2023-02-23T15:58:30.297Z,8.89
2023-02-23T16:02:33.848Z,8.95
2023-02-23T16:06:39.848Z,8.93
2023-02-23T16:10:48.270Z,8.85
2023-02-23T16:14:56.133Z,8.88
2023-02-23T16:19:02.516Z,8.81
2023-02-23T16:23:07.649Z,8.80
2023-02-23T16:27:13.842Z,8.78
2023-02-23T16:31:25.900Z,8.69
2023-02-23T16:35:36.469Z,8.70
2023-02-23T16:39:39.952Z,8.70
2023-02-23T16:43:46.013Z,8.66
2023-02-23T16:47:49.165Z,8.67
2023-02-23T16:51:53.060Z,8.65
2023-02-23T16:56:00.944Z,8.60
2023-02-23T17:00:14.574Z,8.55
2023-02-23T17:04:19.998Z,8.55
2023-02-23T17:08:24.477Z,8.47
2023-02-23T17:12:27.605Z,8.48
2023-02-23T17:16:32.089Z,8.50
2023-02-23T17:20:35.345Z,8.52
2023-02-23T17:24:38.688Z,8.47
2023-02-23T17:28:41.837Z,8.44
2023-02-23T17:32:46.468Z,8.48
2023-02-23T17:36:49.559Z,8.39
2023-02-23T17:40:53.099Z,8.45
2023-02-23T17:44:56.311Z,8.36
2023-02-23T17:49:00.919Z,8.30
2023-02-23T17:53:04.195Z,8.31
2023-02-23T17:57:07.389Z,8.34
2023-02-23T18:01:11.063Z,8.33
2023-02-23T18:05:16.424Z,8.40
2023-02-23T18:09:19.561Z,8.23
2023-02-23T18:13:22.908Z,8.26
2023-02-23T18:17:26.144Z,8.25
2023-02-23T18:21:31.106Z,8.30
2023-02-23T18:25:35.401Z,8.27
2023-02-23T18:29:38.685Z,8.24
2023-02-23T18:33:41.883Z,8.15
2023-02-23T18:37:46.511Z,8.18
2023-02-23T18:41:51.039Z,8.13
2023-02-23T18:45:56.040Z,8.09
2023-02-23T18:50:01.707Z,8.10
2023-02-23T18:54:11.455Z,8.18
2023-02-23T18:58:14.582Z,8.10
2023-02-23T19:02:18.881Z,8.04
2023-02-23T19:06:23.514Z,7.96
2023-02-23T19:10:28.753Z,7.97
2023-02-23T19:14:48.389Z,7.99
2023-02-23T19:18:52.498Z,7.95
2023-02-23T19:22:55.767Z,7.91
2023-02-23T19:27:00.860Z,7.84
2023-02-23T19:31:05.920Z,7.82
2023-02-23T19:35:14.765Z,7.92
2023-02-23T19:39:18.701Z,7.80
2023-02-23T19:43:23.328Z,7.79
2023-02-23T19:47:26.533Z,7.79
2023-02-23T19:51:29.973Z,7.80
2023-02-23T19:55:33.172Z,7.71
2023-02-23T19:59:38.042Z,7.51
2023-02-23T20:03:43.476Z,7.57
2023-02-23T20:07:48.631Z,7.41
2023-02-23T20:11:51.838Z,7.40
2023-02-23T20:16:03.144Z,7.27
2023-02-23T20:20:07.213Z,7.22
2023-02-23T20:24:10.930Z,7.16
2023-02-23T20:28:14.398Z,7.20
2023-02-23T20:32:19.289Z,7.21
2023-02-23T20:36:23.965Z,7.21
2023-02-23T20:40:27.652Z,7.21
2023-02-23T20:44:32.991Z,7.18
2023-02-23T20:48:37.504Z,7.20
2023-02-23T20:52:42.161Z,7.17
2023-02-23T20:56:45.752Z,7.19
2023-02-23T21:00:49.087Z,7.19
2023-02-23T21:04:53.568Z,7.22
2023-02-23T21:09:02.784Z,7.17
2023-02-23T21:13:07.733Z,7.21
2023-02-23T21:17:11.275Z,7.28
2023-02-23T21:21:16.892Z,7.28
2023-02-23T21:25:21.692Z,7.15
2023-02-23T21:29:28.133Z,7.02
2023-02-23T21:33:31.221Z,6.95
2023-02-23T21:37:36.012Z,6.88
2023-02-23T21:41:39.351Z,6.89
2023-02-23T21:45:46.717Z,6.82
2023-02-23T21:49:50.190Z,6.79
2023-02-23T21:53:58.086Z,6.78
2023-02-23T21:58:01.316Z,6.71
2023-02-23T22:02:05.138Z,6.76
2023-02-23T22:06:08.552Z,6.66
2023-02-23T22:10:13.174Z,6.63
2023-02-23T22:14:18.407Z,6.67
2023-02-23T22:18:23.841Z,6.62
2023-02-23T22:22:28.838Z,6.59
2023-02-23T22:26:34.615Z,6.46
2023-02-23T22:30:38.062Z,6.38
2023-02-23T22:34:41.810Z,6.27
2023-02-23T22:38:46.304Z,6.08
2023-02-23T22:42:51.653Z,5.94
2023-02-23T22:46:54.878Z,5.99
2023-02-23T22:50:59.014Z,5.95
2023-02-23T22:55:03.326Z,5.97
2023-02-23T22:59:08.739Z,5.89
2023-02-23T23:03:12.754Z,5.88
2023-02-23T23:07:16.134Z,5.84
2023-02-23T23:11:23.015Z,5.85
2023-02-23T23:15:27.645Z,5.72
2023-02-23T23:19:33.071Z,5.72
2023-02-23T23:23:36.776Z,5.70
2023-02-23T23:27:43.977Z,5.68
2023-02-23T23:31:48.702Z,5.70
2023-02-23T23:35:52.428Z,5.71
2023-02-23T23:40:00.316Z,5.68
2023-02-23T23:44:05.357Z,5.68
2023-02-23T23:48:10.057Z,5.70
2023-02-23T23:52:17.939Z,5.55
2023-02-23T23:56:22.292Z,5.54
